createdAt,value
2024-04-18T00:00:48.764Z,3.90
2024-04-18T00:03:37.584Z,3.90
2024-04-18T00:06:06.252Z,4.00
2024-04-18T00:08:34.736Z,4.30
2024-04-18T00:11:23.170Z,4.70
2024-04-18T00:13:51.568Z,4.60
2024-04-18T00:16:38.251Z,4.40
2024-04-18T00:19:24.943Z,4.30
2024-04-18T00:22:04.129Z,4.20
2024-04-18T00:24:32.810Z,3.80
2024-04-18T00:27:21.482Z,4.70
2024-04-18T00:29:50.003Z,4.30
2024-04-18T00:32:18.673Z,5.00
2024-04-18T00:35:06.871Z,4.60
2024-04-18T00:40:07.830Z,4.70
2024-04-18T00:42:40.162Z,4.10
2024-04-18T00:45:09.074Z,4.60
2024-04-18T00:47:49.361Z,4.10
2024-04-18T00:52:48.941Z,4.00
2024-04-18T00:55:31.219Z,4.80
2024-04-18T00:58:13.472Z,4.70
2024-04-18T01:00:49.890Z,4.20
2024-04-18T01:03:36.955Z,4.60
2024-04-18T01:06:10.130Z,4.60
2024-04-18T01:08:58.425Z,5.00
2024-04-18T01:11:33.674Z,4.80
2024-04-18T01:14:12.947Z,4.70
2024-04-18T01:17:03.091Z,4.60
2024-04-18T01:19:32.241Z,4.80
2024-04-18T01:22:04.933Z,4.80
2024-04-18T01:24:34.944Z,4.60
2024-04-18T01:27:03.964Z,4.80
2024-04-18T01:29:45.372Z,5.20
2024-04-18T01:32:37.753Z,4.80
2024-04-18T01:35:08.689Z,4.80
2024-04-18T01:40:18.403Z,5.40
2024-04-18T01:43:08.409Z,4.70
2024-04-18T01:45:56.246Z,4.70
2024-04-18T01:48:24.854Z,5.90
2024-04-18T01:51:11.451Z,4.80
2024-04-18T01:53:40.028Z,7.10
2024-04-18T01:56:20.714Z,7.70
2024-04-18T01:58:49.405Z,7.10
2024-04-18T02:01:24.965Z,7.70
2024-04-18T02:03:53.981Z,5.50
2024-04-18T02:06:22.889Z,5.50
2024-04-18T02:08:53.470Z,6.00
2024-04-18T02:11:43.668Z,7.30
2024-04-18T02:14:16.857Z,7.30
2024-04-18T02:16:45.906Z,6.50
2024-04-18T02:19:26.978Z,7.90
2024-04-18T02:22:14.090Z,6.00
2024-04-18T02:25:07.569Z,7.10
2024-04-18T02:27:37.722Z,8.20
2024-04-18T02:30:26.909Z,8.30
2024-04-18T02:33:16.430Z,7.30
2024-04-18T02:35:50.661Z,7.80
2024-04-18T02:38:37.771Z,9.80
2024-04-18T02:41:07.646Z,6.70
2024-04-18T02:43:55.783Z,8.90
2024-04-18T02:46:24.866Z,5.50
2024-04-18T02:49:12.133Z,8.80
2024-04-18T02:51:58.849Z,5.70
2024-04-18T02:54:45.813Z,9.70
2024-04-18T02:57:14.782Z,10.30
2024-04-18T02:59:43.258Z,10.10
2024-04-18T03:02:25.686Z,10.20
2024-04-18T03:05:18.437Z,10.60
2024-04-18T03:07:59.826Z,12.90
2024-04-18T03:10:52.410Z,11.60
2024-04-18T03:13:39.924Z,10.90
2024-04-18T03:16:28.351Z,11.30
2024-04-18T03:19:17.192Z,11.30
2024-04-18T03:21:55.641Z,11.30
2024-04-18T03:24:25.228Z,11.80
2024-04-18T03:26:54.909Z,11.50
2024-04-18T03:29:23.482Z,11.10
2024-04-18T03:32:05.302Z,12.50
2024-04-18T03:34:46.158Z,12.90
2024-04-18T03:37:15.004Z,11.70
2024-04-18T03:39:43.955Z,13.20
2024-04-18T03:42:15.849Z,12.90
2024-04-18T03:44:55.610Z,12.70
2024-04-18T03:47:24.909Z,13.30
2024-04-18T03:50:15.537Z,13.10
2024-04-18T03:52:44.379Z,12.10
2024-04-18T03:55:32.529Z,13.30
2024-04-18T03:58:08.763Z,12.10
2024-04-18T04:00:52.463Z,12.80
2024-04-18T04:03:22.927Z,12.40
2024-04-18T04:05:51.579Z,13.30
2024-04-18T04:08:20.078Z,13.10
2024-04-18T04:10:48.941Z,13.80
2024-04-18T04:13:17.434Z,14.30
2024-04-18T04:15:51.187Z,14.50
2024-04-18T04:18:38.753Z,14.40
2024-04-18T04:21:39.572Z,14.30
2024-04-18T04:24:08.641Z,14.60
2024-04-18T04:26:53.832Z,16.70
2024-04-18T04:29:23.246Z,14.20
2024-04-18T04:31:51.841Z,16.40
2024-04-18T04:34:20.522Z,14.40
2024-04-18T04:36:49.159Z,13.20
2024-04-18T04:39:17.659Z,14.20
2024-04-18T04:41:46.096Z,12.70
2024-04-18T04:44:14.734Z,13.50
2024-04-18T04:46:52.927Z,12.70
2024-04-18T04:49:23.634Z,13.20
2024-04-18T04:52:06.513Z,13.00
2024-04-18T04:54:45.106Z,12.60
2024-04-18T04:57:14.828Z,12.80
2024-04-18T04:59:46.751Z,11.60
2024-04-18T05:02:15.411Z,11.00
2024-04-18T05:04:51.687Z,11.20
2024-04-18T05:07:33.168Z,12.30
2024-04-18T05:10:21.598Z,12.00
2024-04-18T05:12:51.905Z,12.50
2024-04-18T05:15:36.824Z,12.50
2024-04-18T05:18:07.091Z,10.30
2024-04-18T05:20:35.764Z,10.80
2024-04-18T05:23:05.461Z,12.00
2024-04-18T05:25:36.199Z,14.60
2024-04-18T05:28:31.436Z,14.70
2024-04-18T05:31:04.438Z,13.80
2024-04-18T05:33:34.622Z,12.70
2024-04-18T05:36:05.162Z,12.60
2024-04-18T05:38:33.721Z,9.60
2024-04-18T05:41:02.333Z,10.50
2024-04-18T05:43:49.279Z,11.60
2024-04-18T05:46:17.842Z,10.70
2024-04-18T05:48:46.424Z,9.70
2024-04-18T05:51:15.459Z,10.20
2024-04-18T05:54:02.676Z,10.10
2024-04-18T05:56:31.217Z,9.10
2024-04-18T05:58:59.865Z,9.00
2024-04-18T06:01:28.316Z,8.10
2024-04-18T06:03:56.827Z,8.70
2024-04-18T06:06:26.660Z,9.10
2024-04-18T06:09:15.095Z,10.70
2024-04-18T06:11:44.642Z,10.90
2024-04-18T06:14:22.405Z,9.10
2024-04-18T06:16:53.365Z,10.00
2024-04-18T06:19:43.613Z,9.60
2024-04-18T06:22:33.448Z,9.40
2024-04-18T06:25:20.334Z,9.50
2024-04-18T06:27:49.138Z,10.20
2024-04-18T06:30:17.902Z,10.00
2024-04-18T06:32:46.614Z,8.40
2024-04-18T06:35:15.531Z,10.40
2024-04-18T06:37:44.255Z,10.90
2024-04-18T06:40:13.213Z,10.80
2024-04-18T06:42:42.741Z,11.40
2024-04-18T06:45:11.458Z,12.30
2024-04-18T06:47:40.317Z,10.60
2024-04-18T06:50:12.225Z,13.80
2024-04-18T06:52:40.664Z,13.90
2024-04-18T06:55:09.208Z,21.10
2024-04-18T06:57:45.228Z,15.40
2024-04-18T07:00:14.683Z,18.30
2024-04-18T07:02:43.923Z,13.10
2024-04-18T07:05:31.238Z,11.60
2024-04-18T07:08:18.414Z,12.40
2024-04-18T07:10:47.013Z,12.30
2024-04-18T07:13:33.573Z,12.20
2024-04-18T07:16:23.361Z,11.80
2024-04-18T07:18:54.835Z,9.70
2024-04-18T07:21:23.681Z,10.80
2024-04-18T07:23:52.474Z,9.10
2024-04-18T07:26:39.390Z,11.10
2024-04-18T07:29:07.885Z,9.70
2024-04-18T07:31:36.558Z,11.30
2024-04-18T07:34:17.610Z,10.50
2024-04-18T07:36:50.308Z,10.60
2024-04-18T07:39:20.073Z,10.20
2024-04-18T07:41:49.083Z,10.50
2024-04-18T07:44:20.751Z,12.20
2024-04-18T07:46:50.995Z,12.80
2024-04-18T07:49:19.673Z,12.60
2024-04-18T07:51:48.492Z,11.10
2024-04-18T07:54:21.384Z,22.60
2024-04-18T07:56:50.405Z,47.00
2024-04-18T07:59:20.208Z,39.50
2024-04-18T08:01:50.671Z,24.20
2024-04-18T08:04:44.494Z,17.40
2024-04-18T08:07:12.643Z,11.70
2024-04-18T08:09:48.283Z,11.20
2024-04-18T08:12:26.864Z,9.30
2024-04-18T08:15:01.680Z,10.90
2024-04-18T08:17:33.940Z,9.30
2024-04-18T08:20:05.541Z,7.10
2024-04-18T08:22:35.253Z,8.00
2024-04-18T08:25:08.777Z,10.00
2024-04-18T08:27:37.546Z,7.50
2024-04-18T08:30:07.141Z,7.30
2024-04-18T08:32:37.166Z,9.20
2024-04-18T08:35:06.531Z,9.80
2024-04-18T08:37:35.800Z,7.40
2024-04-18T08:40:05.043Z,5.90
2024-04-18T08:42:33.995Z,6.60
2024-04-18T08:45:03.137Z,7.60
2024-04-18T08:47:35.621Z,7.20
2024-04-18T09:04:37.687Z,2.60
2024-04-18T09:07:06.308Z,3.70
2024-04-18T09:09:34.554Z,3.40
2024-04-18T09:12:04.199Z,4.60
2024-04-18T09:14:33.552Z,4.70
2024-04-18T09:17:01.639Z,3.70
2024-04-18T09:19:30.772Z,4.90
2024-04-18T09:22:01.647Z,4.70
2024-04-18T09:24:29.995Z,4.80
2024-04-18T09:26:58.753Z,5.30
2024-04-18T09:29:26.419Z,5.20
2024-04-18T09:31:59.014Z,3.90
2024-04-18T09:36:57.610Z,5.60
2024-04-18T09:39:29.287Z,5.20
2024-04-18T09:42:48.375Z,5.90
2024-04-18T09:45:20.718Z,6.10
2024-04-18T09:50:17.717Z,5.90
2024-04-18T10:06:37.202Z,3.90
2024-04-18T10:09:08.001Z,3.70
2024-04-18T10:11:37.479Z,3.20
2024-04-18T10:14:08.202Z,3.90
2024-04-18T10:16:50.336Z,4.00
2024-04-18T10:19:22.915Z,5.40
2024-04-18T10:24:36.272Z,5.70
2024-04-18T10:27:10.868Z,4.60
2024-04-18T10:29:39.359Z,5.00
2024-04-18T10:32:08.980Z,4.40
2024-04-18T10:34:36.775Z,5.20
2024-04-18T10:37:07.435Z,4.60
2024-04-18T10:39:38.010Z,5.80
2024-04-18T10:42:11.258Z,6.10
2024-04-18T10:44:39.111Z,6.00
2024-04-18T10:47:08.117Z,6.80
2024-04-18T10:49:36.120Z,5.80
2024-04-18T10:52:08.847Z,5.10
2024-04-18T10:54:37.279Z,4.80
2024-04-18T10:57:05.370Z,4.00
2024-04-18T10:59:36.060Z,4.90
2024-04-18T11:02:06.681Z,5.70
2024-04-18T11:04:35.222Z,5.60
2024-04-18T11:07:03.944Z,4.00
2024-04-18T11:09:34.437Z,3.80
2024-04-18T11:12:05.850Z,3.80
2024-04-18T11:14:34.017Z,5.00
2024-04-18T11:17:02.113Z,4.90
2024-04-18T11:19:33.632Z,5.00
2024-04-18T11:22:02.325Z,4.40
2024-04-18T11:24:30.149Z,4.60
2024-04-18T11:26:58.027Z,4.80
2024-04-18T11:29:27.940Z,3.90
2024-04-18T11:32:11.994Z,3.30
2024-04-18T11:34:40.319Z,4.60
2024-04-18T11:37:08.348Z,3.30
2024-04-18T11:39:36.237Z,2.90
2024-04-18T11:42:04.248Z,3.10
2024-04-18T11:44:33.502Z,2.10
2024-04-18T11:47:02.337Z,3.40
2024-04-18T11:49:30.260Z,3.30
2024-04-18T11:51:58.355Z,4.10
2024-04-18T11:54:26.232Z,2.70
2024-04-18T11:56:54.546Z,1.40
2024-04-18T11:59:32.688Z,1.90
2024-04-18T12:02:01.066Z,1.60
2024-04-18T12:04:29.008Z,1.50
2024-04-18T12:06:58.230Z,2.20
2024-04-18T12:09:31.243Z,1.90
2024-04-18T12:12:02.082Z,1.50
2024-04-18T12:14:47.608Z,1.40
2024-04-18T12:17:29.420Z,1.40
2024-04-18T12:21:15.070Z,1.90
2024-04-18T12:23:43.759Z,1.30
2024-04-18T12:27:03.748Z,1.30
2024-04-18T12:29:31.615Z,1.40
2024-04-18T12:32:02.161Z,1.10
2024-04-18T12:34:29.915Z,1.40
2024-04-18T12:37:03.942Z,1.70
2024-04-18T12:39:35.784Z,1.90
2024-04-18T12:42:23.355Z,2.20
2024-04-18T12:44:50.907Z,2.00
2024-04-18T12:47:24.429Z,1.60
2024-04-18T12:52:55.643Z,1.20
2024-04-18T12:55:24.461Z,1.10
2024-04-18T12:57:53.555Z,1.00
2024-04-18T13:00:36.986Z,1.20
2024-04-18T13:03:08.179Z,1.40
2024-04-18T13:05:37.350Z,1.40
2024-04-18T13:08:06.796Z,1.40
2024-04-18T13:10:54.858Z,1.90
2024-04-18T13:13:26.300Z,1.30
2024-04-18T13:16:13.728Z,1.80
2024-04-18T13:18:42.835Z,1.20
2024-04-18T13:21:31.540Z,1.80
2024-04-18T13:24:00.121Z,2.10
2024-04-18T13:26:28.926Z,1.50
2024-04-18T13:29:17.802Z,2.20
2024-04-18T13:31:47.917Z,2.40
2024-04-18T13:34:22.381Z,1.80
2024-04-18T13:36:51.336Z,2.40
2024-04-18T13:39:19.916Z,2.50
2024-04-18T13:42:05.987Z,1.80
2024-04-18T13:44:54.557Z,2.30
2024-04-18T13:47:48.947Z,2.60
2024-04-18T13:50:17.848Z,2.70
2024-04-18T13:52:46.589Z,2.40
2024-04-18T13:55:15.572Z,1.50
2024-04-18T13:57:44.280Z,1.50
2024-04-18T14:00:22.502Z,1.80
2024-04-18T14:03:10.196Z,2.10
2024-04-18T14:05:59.275Z,2.50
2024-04-18T14:08:43.809Z,2.40
2024-04-18T14:11:31.311Z,3.50
2024-04-18T14:14:10.196Z,3.50
2024-04-18T14:17:17.734Z,3.00
2024-04-18T14:20:06.075Z,2.60
2024-04-18T14:22:35.726Z,3.70
2024-04-18T14:25:04.704Z,2.00
2024-04-18T14:27:37.011Z,2.90
2024-04-18T14:30:26.762Z,2.80
2024-04-18T14:33:11.739Z,2.00
2024-04-18T14:35:40.703Z,3.00
2024-04-18T14:38:09.562Z,2.60
2024-04-18T14:40:39.559Z,2.10
2024-04-18T14:43:10.399Z,2.40
2024-04-18T14:45:39.338Z,2.00
2024-04-18T14:48:22.206Z,2.10
2024-04-18T14:50:52.629Z,2.10
2024-04-18T14:53:41.201Z,2.60
2024-04-18T14:56:09.955Z,3.00
2024-04-18T14:58:39.670Z,2.30
2024-04-18T15:01:21.739Z,2.50
2024-04-18T15:03:50.737Z,2.00
2024-04-18T15:06:20.623Z,1.80
2024-04-18T15:09:11.952Z,2.10
2024-04-18T15:11:56.679Z,1.40
2024-04-18T15:14:38.538Z,1.90
2024-04-18T15:17:11.913Z,1.60
2024-04-18T15:19:40.755Z,2.20
2024-04-18T15:22:28.299Z,3.20
2024-04-18T15:25:17.060Z,2.60
2024-04-18T15:27:45.928Z,2.30
2024-04-18T15:30:14.675Z,2.80
2024-04-18T15:32:43.330Z,2.10
2024-04-18T15:35:24.089Z,2.60
2024-04-18T15:38:11.368Z,2.40
2024-04-18T15:41:02.252Z,2.60
2024-04-18T15:43:36.883Z,2.30
2024-04-18T15:46:05.860Z,1.90
2024-04-18T16:03:39.703Z,1.50
2024-04-18T16:11:13.012Z,1.90
2024-04-18T16:14:12.623Z,1.80
2024-04-18T16:16:46.069Z,2.30
2024-04-18T16:19:28.998Z,1.70
2024-04-18T16:22:07.670Z,2.00
2024-04-18T16:24:49.842Z,2.20
2024-04-18T16:27:22.977Z,2.80
2024-04-18T16:30:01.268Z,2.40
2024-04-18T16:32:51.456Z,2.40
2024-04-18T16:35:22.690Z,2.30
2024-04-18T16:38:16.727Z,2.30
2024-04-18T16:40:55.036Z,2.50
2024-04-18T16:43:38.615Z,3.50
2024-04-18T16:46:11.064Z,5.40
2024-04-18T16:48:40.094Z,4.50
2024-04-18T16:51:30.479Z,5.00
2024-04-18T16:54:01.733Z,4.90
2024-04-18T16:57:09.701Z,3.20
2024-04-18T17:00:23.489Z,2.70
2024-04-18T17:03:12.920Z,2.30
2024-04-18T17:06:07.953Z,2.30
2024-04-18T17:08:36.780Z,1.70
2024-04-18T17:11:12.487Z,1.80
2024-04-18T17:14:35.844Z,2.30
2024-04-18T17:17:10.827Z,2.80
2024-04-18T17:20:22.183Z,2.90
2024-04-18T17:23:00.464Z,2.80
2024-04-18T17:25:34.431Z,3.10
2024-04-18T17:28:10.997Z,3.80
2024-04-18T17:31:18.842Z,4.90
2024-04-18T17:33:52.393Z,3.60
2024-04-18T17:36:25.544Z,3.40
2024-04-18T17:39:01.771Z,5.40
2024-04-18T17:45:27.350Z,2.00
2024-04-18T17:48:22.121Z,4.10
2024-04-18T17:52:02.797Z,3.50
2024-04-18T17:54:32.634Z,4.90
2024-04-18T17:57:02.036Z,3.30
2024-04-18T17:59:40.789Z,5.60
2024-04-18T18:02:18.072Z,7.50
2024-04-18T18:05:09.621Z,5.50
2024-04-18T18:07:39.806Z,5.00
2024-04-18T18:10:11.049Z,5.10
2024-04-18T18:12:45.758Z,5.00
2024-04-18T18:15:18.198Z,4.10
2024-04-18T18:18:01.036Z,3.80
2024-04-18T18:20:50.245Z,3.30
2024-04-18T18:23:28.593Z,3.50
2024-04-18T18:26:03.226Z,3.60
2024-04-18T18:28:48.841Z,3.40
2024-04-18T18:31:26.980Z,3.50
2024-04-18T18:34:11.822Z,2.90
2024-04-18T18:36:45.140Z,3.90
2024-04-18T18:39:24.205Z,3.70
2024-04-18T18:42:22.059Z,3.40
2024-04-18T18:45:39.406Z,3.00
2024-04-18T18:48:46.641Z,1.70
2024-04-18T18:51:47.863Z,3.90
2024-04-18T18:54:50.419Z,4.20
2024-04-18T18:58:15.050Z,4.30
2024-04-18T19:02:16.833Z,3.20
2024-04-18T19:06:29.630Z,2.70
2024-04-18T19:09:29.605Z,3.50
2024-04-18T19:13:10.355Z,3.00
2024-04-18T19:25:50.030Z,3.90
2024-04-18T19:29:44.097Z,3.50
2024-04-18T19:32:20.608Z,3.30
2024-04-18T19:35:12.897Z,4.20
2024-04-18T19:37:47.276Z,4.10
2024-04-18T19:40:18.916Z,3.80
2024-04-18T19:43:05.481Z,3.80
2024-04-18T19:45:35.118Z,3.50
2024-04-18T19:48:06.743Z,4.30
2024-04-18T19:50:39.289Z,4.30
2024-04-18T19:56:16.966Z,4.60
2024-04-18T19:58:52.732Z,3.60
2024-04-18T20:01:30.034Z,5.30
2024-04-18T20:04:03.400Z,5.00
2024-04-18T20:06:34.209Z,4.70
2024-04-18T20:09:09.489Z,4.80
2024-04-18T20:11:42.709Z,5.00
2024-04-18T20:14:11.705Z,4.70
2024-04-18T20:16:58.849Z,4.80
2024-04-18T20:19:29.834Z,4.90
2024-04-18T20:21:58.787Z,3.10
2024-04-18T20:24:29.417Z,3.10
2024-04-18T20:27:17.057Z,4.20
2024-04-18T20:29:52.093Z,3.90
2024-04-18T20:32:25.319Z,5.00
2024-04-18T20:34:56.898Z,5.40
2024-04-18T20:37:26.103Z,4.70
2024-04-18T20:39:59.599Z,4.00
2024-04-18T20:42:31.852Z,4.30
2024-04-18T20:45:07.976Z,4.80
2024-04-18T20:47:36.631Z,4.40
2024-04-18T20:53:51.155Z,4.30
2024-04-18T20:56:19.789Z,4.80
2024-04-18T20:58:50.094Z,4.20
2024-04-18T21:01:19.127Z,5.00
2024-04-18T21:03:48.167Z,5.50
2024-04-18T21:06:22.950Z,5.40
2024-04-18T21:08:55.569Z,5.70
2024-04-18T21:11:24.773Z,6.20
2024-04-18T21:13:53.420Z,5.20
2024-04-18T21:16:26.234Z,5.60
2024-04-18T21:21:30.894Z,5.00
2024-04-18T21:23:59.527Z,5.40
2024-04-18T21:26:28.415Z,6.40
2024-04-18T21:28:57.049Z,6.80
2024-04-18T21:31:37.605Z,6.50
2024-04-18T21:34:08.412Z,6.70
2024-04-18T21:36:37.943Z,5.50
2024-04-18T21:39:06.784Z,6.60
2024-04-18T21:41:39.148Z,6.20
2024-04-18T21:44:08.097Z,6.30
2024-04-18T21:46:36.612Z,6.90
2024-04-18T21:49:05.282Z,7.10
2024-04-18T21:51:34.012Z,6.40
2024-04-18T21:54:02.658Z,6.40
2024-04-18T21:56:33.086Z,7.00
2024-04-18T21:59:02.445Z,7.00
2024-04-18T22:01:43.236Z,7.10
2024-04-18T22:04:12.456Z,7.90
2024-04-18T22:06:41.443Z,8.00
2024-04-18T22:09:10.178Z,7.90
2024-04-18T22:11:38.799Z,9.60
2024-04-18T22:14:10.444Z,9.20
2024-04-18T22:16:42.776Z,9.80
2024-04-18T22:19:11.653Z,10.20
2024-04-18T22:21:41.215Z,10.30
2024-04-18T22:24:10.108Z,11.50
2024-04-18T22:26:38.624Z,11.10
2024-04-18T22:29:07.519Z,10.90
2024-04-18T22:31:38.301Z,11.50
2024-04-18T22:34:08.948Z,10.30
2024-04-18T22:36:42.345Z,11.60
2024-04-18T22:39:11.002Z,12.00
2024-04-18T22:41:39.654Z,11.60
2024-04-18T22:44:12.998Z,12.40
2024-04-18T22:46:41.662Z,13.30
2024-04-18T22:49:10.250Z,14.00
2024-04-18T22:51:38.843Z,14.60
2024-04-18T22:54:07.442Z,14.60
2024-04-18T22:56:55.884Z,16.90
2024-04-18T22:59:25.233Z,16.10
2024-04-18T23:01:53.983Z,16.30
2024-04-18T23:04:22.731Z,15.70
2024-04-18T23:06:51.442Z,17.70
2024-04-18T23:09:20.087Z,17.50
2024-04-18T23:11:48.760Z,18.10
2024-04-18T23:14:17.326Z,19.40
2024-04-18T23:16:45.881Z,19.40
2024-04-18T23:19:14.840Z,18.70
2024-04-18T23:21:43.436Z,19.30
2024-04-18T23:24:32.017Z,20.30
2024-04-18T23:27:00.671Z,20.80
2024-04-18T23:29:31.962Z,21.80
2024-04-18T23:32:00.511Z,19.50
2024-04-18T23:34:29.162Z,19.90
2024-04-18T23:37:06.848Z,19.90
2024-04-18T23:39:35.447Z,18.60
2024-04-18T23:42:04.133Z,19.60
2024-04-18T23:44:32.875Z,18.80
2024-04-18T23:47:04.809Z,21.00
2024-04-18T23:49:33.464Z,20.40
2024-04-18T23:52:01.910Z,18.30
2024-04-18T23:54:30.519Z,20.20
2024-04-18T23:56:59.258Z,19.30
2024-04-18T23:59:28.512Z,18.40
